Time;durP1;ratioP1;P1;durP2;ratioP2;P2;SDS_P1;SDS_P2;PMS_P1;PMS_P2;Temp;Humidity;BMP_temperature;BMP_pressure;BME280_temperature;BME280_humidity;BME280_pressure;Samples;Min_cycle;Max_cycle;Signal;HPM_P1;HPM_P2
2023/12/07 00:01:35;;;;;;;21.77;14.50;;;;;;;4.40;95.88;98414.47;4152991;28;20194;-88
2023/12/07 00:03:38;;;;;;;21.67;13.27;;;;;;;4.40;96.04;98422.22;4149322;28;20253;-88
2023/12/07 00:05:41;;;;;;;23.00;13.93;;;;;;;4.42;95.75;98421.28;4154336;28;20203;-87
2023/12/07 00:07:45;;;;;;;20.90;12.48;;;;;;;4.40;95.51;98423.03;4158529;28;20628;-88
2023/12/07 00:09:49;;;;;;;24.40;14.05;;;;;;;4.38;96.33;98422.28;4158698;28;20236;-88
2023/12/07 00:11:52;;;;;;;20.48;13.60;;;;;;;4.38;94.88;98432.59;4155598;28;20283;-88
2023/12/07 00:13:56;;;;;;;19.95;13.75;;;;;;;4.41;95.48;98432.47;4158665;28;20256;-88
2023/12/07 00:15:59;;;;;;;20.42;13.68;;;;;;;4.39;96.44;98423.97;4159492;28;20214;-88
2023/12/07 00:18:03;;;;;;;22.02;13.48;;;;;;;4.37;95.66;98428.31;4143225;28;20724;-87
2023/12/07 00:20:07;;;;;;;22.48;14.35;;;;;;;4.34;95.25;98428.44;4155921;28;20208;-88
2023/12/07 00:22:10;;;;;;;20.52;14.45;;;;;;;4.32;96.26;98427.69;4141780;28;20676;-86
2023/12/07 00:24:14;;;;;;;23.25;14.88;;;;;;;4.35;96.39;98426.72;4155180;28;20756;-88
2023/12/07 00:26:18;;;;;;;22.58;14.25;;;;;;;4.35;96.25;98421.56;4152542;28;20191;-88
2023/12/07 00:28:21;;;;;;;20.98;13.77;;;;;;;4.37;95.44;98428.31;4157851;28;20230;-88
2023/12/07 00:30:23;;;;;;;20.55;13.30;;;;;;;4.37;95.88;98425.75;4154943;28;20314;-88
2023/12/07 00:32:27;;;;;;;23.60;15.20;;;;;;;4.37;95.78;98430.91;4154211;28;20710;-88
2023/12/07 00:34:30;;;;;;;22.30;14.80;;;;;;;4.38;95.85;98432.59;4159502;28;20653;-87
2023/12/07 00:36:34;;;;;;;22.80;15.02;;;;;;;4.40;96.21;98435.13;4159115;28;20237;-89
2023/12/07 00:38:37;;;;;;;20.70;14.30;;;;;;;4.41;95.46;98442.81;4157600;28;20211;-88
2023/12/07 00:40:41;;;;;;;22.00;14.05;;;;;;;4.42;95.53;98443.63;4137194;28;20207;-88
2023/12/07 00:42:45;;;;;;;19.40;13.82;;;;;;;4.39;94.94;98444.63;4150731;28;20242;-86
2023/12/07 00:44:48;;;;;;;21.45;13.55;;;;;;;4.39;95.89;98447.19;4150504;28;20249;-87
2023/12/07 00:46:51;;;;;;;20.23;13.63;;;;;;;4.39;95.67;98446.34;4154735;28;20688;-89
2023/12/07 00:48:54;;;;;;;21.98;13.07;;;;;;;4.38;96.04;98452.44;4142722;28;20644;-88
2023/12/07 00:50:58;;;;;;;19.83;13.73;;;;;;;4.37;95.77;98445.56;4169328;28;20268;-89
2023/12/07 00:53:01;;;;;;;22.40;13.50;;;;;;;4.39;95.56;98454.09;4151814;28;20206;-88
2023/12/07 00:55:05;;;;;;;21.15;13.20;;;;;;;4.40;95.32;98458.34;4159984;28;20652;-86
2023/12/07 00:57:14;;;;;;;19.13;11.82;;;;;;;4.40;95.77;98458.34;4156326;28;20210;-86
2023/12/07 00:59:18;;;;;;;19.95;13.32;;;;;;;4.38;95.66;98461.00;4153456;28;20253;-88
2023/12/07 01:01:21;;;;;;;20.52;13.85;;;;;;;4.37;95.28;98451.56;4138751;28;20275;-88
2023/12/07 01:03:25;;;;;;;22.58;13.43;;;;;;;4.36;96.43;98455.06;4171585;28;20222;-88
2023/12/07 01:05:28;;;;;;;21.88;12.80;;;;;;;4.36;95.92;98452.47;4172713;28;20731;-87
2023/12/07 01:07:31;;;;;;;23.27;13.07;;;;;;;4.36;95.79;98460.22;4153476;28;20199;-89
2023/12/07 01:09:36;;;;;;;20.25;12.90;;;;;;;4.35;95.71;98461.13;4155893;28;20242;-88
2023/12/07 01:11:39;;;;;;;25.85;13.27;;;;;;;4.33;95.25;98467.22;4151734;28;20257;-87
2023/12/07 01:13:42;;;;;;;22.10;12.90;;;;;;;4.30;95.63;98469.91;4156293;28;20206;-88
2023/12/07 01:15:47;;;;;;;29.00;13.70;;;;;;;4.31;96.03;98467.28;4142406;28;20219;-87
2023/12/07 01:17:51;;;;;;;20.45;12.68;;;;;;;4.28;95.41;98471.72;4145153;28;20211;-88
2023/12/07 01:19:55;;;;;;;17.00;11.85;;;;;;;4.29;96.54;98468.25;4152515;28;20708;-88
2023/12/07 01:21:58;;;;;;;20.75;13.40;;;;;;;4.30;96.87;98472.50;4157421;28;20210;-88
2023/12/07 01:24:02;;;;;;;20.50;13.73;;;;;;;4.32;95.99;98478.47;4157774;28;20245;-87
2023/12/07 01:26:18;;;;;;;18.90;12.57;;;;;;;4.32;96.32;98481.06;4156461;28;20195;-87
2023/12/07 01:28:21;;;;;;;19.35;12.60;;;;;;;4.34;96.88;98492.97;4169550;28;20935;-88
2023/12/07 01:30:24;;;;;;;17.42;12.23;;;;;;;4.36;96.82;98485.19;4159073;28;20231;-88
2023/12/07 01:32:29;;;;;;;22.05;13.77;;;;;;;4.37;96.71;98487.69;4154936;28;20218;-86
2023/12/07 01:34:32;;;;;;;22.58;13.68;;;;;;;4.36;95.95;98490.34;4155387;28;20277;-88
2023/12/07 01:36:35;;;;;;;22.35;14.10;;;;;;;4.36;96.12;98493.78;4157110;28;20207;-86
2023/12/07 01:38:39;;;;;;;20.23;13.10;;;;;;;4.39;95.82;98495.38;4158960;28;20293;-87
2023/12/07 01:40:42;;;;;;;18.80;13.15;;;;;;;4.40;96.59;98489.34;4153125;28;20215;-87
2023/12/07 01:42:51;;;;;;;20.48;13.43;;;;;;;4.41;96.16;98486.69;4154562;28;20221;-88
2023/12/07 01:44:55;;;;;;;21.25;14.27;;;;;;;4.41;96.58;98481.53;4138899;28;20578;-87
2023/12/07 01:47:01;;;;;;;19.10;13.57;;;;;;;4.39;95.77;98485.94;4155059;28;20554;-87
2023/12/07 01:49:06;;;;;;;22.70;14.02;;;;;;;4.39;96.55;98488.50;4153739;28;20214;-87
2023/12/07 01:51:10;;;;;;;21.83;13.75;;;;;;;4.43;96.18;98497.78;4134790;28;20302;-88
2023/12/07 01:53:13;;;;;;;22.80;13.63;;;;;;;4.42;96.07;98492.69;4155542;28;20202;-88
2023/12/07 01:55:16;;;;;;;20.65;13.98;;;;;;;4.43;95.38;98497.78;4155333;28;20257;-88
2023/12/07 01:57:20;;;;;;;21.60;13.43;;;;;;;4.43;95.70;98497.78;4152012;28;20210;-87
2023/12/07 01:59:24;;;;;;;23.88;14.18;;;;;;;4.43;95.76;98497.78;4153703;28;20202;-87
2023/12/07 02:01:28;;;;;;;21.30;13.82;;;;;;;4.43;95.79;98497.78;4154288;28;20881;-86
2023/12/07 02:03:32;;;;;;;25.90;15.93;;;;;;;4.44;96.38;98494.31;4151757;28;20195;-87
2023/12/07 02:05:38;;;;;;;26.80;15.98;;;;;;;4.45;95.31;98485.69;4167749;28;20720;-87
2023/12/07 02:07:41;;;;;;;23.08;14.88;;;;;;;4.47;95.77;98483.88;4156036;28;20215;-88
2023/12/07 02:09:47;;;;;;;20.48;13.68;;;;;;;4.47;96.30;98494.22;4154860;28;20218;-87
2023/12/07 02:11:50;;;;;;;17.98;12.45;;;;;;;4.47;95.25;98486.47;4152252;28;20198;-88
2023/12/07 02:13:55;;;;;;;21.95;13.98;;;;;;;4.43;95.72;98486.63;4168568;28;20257;-87
2023/12/07 02:15:59;;;;;;;24.33;13.55;;;;;;;4.42;95.69;98484.94;4153842;28;20230;-88
2023/12/07 02:18:07;;;;;;;23.17;13.55;;;;;;;4.42;96.28;98490.97;4140703;28;20249;-87
2023/12/07 02:20:15;;;;;;;20.00;13.48;;;;;;;4.45;95.93;98487.41;4155413;28;20230;-86
2023/12/07 02:22:24;;;;;;;22.55;15.05;;;;;;;4.42;95.35;98493.56;4161157;28;20202;-88
2023/12/07 02:24:29;;;;;;;22.55;13.52;;;;;;;4.44;95.78;98494.31;4149968;28;20329;-87
2023/12/07 02:26:35;;;;;;;19.98;12.63;;;;;;;4.44;95.59;98501.25;4138856;28;20933;-87
2023/12/07 02:28:38;;;;;;;20.45;13.48;;;;;;;4.43;94.73;98497.78;4156801;28;20206;-88
2023/12/07 02:30:41;;;;;;;21.65;13.98;;;;;;;4.42;95.17;98496.13;4153457;28;20214;-86
2023/12/07 02:32:46;;;;;;;18.90;12.57;;;;;;;4.42;96.04;98492.69;4169900;28;20688;-87
2023/12/07 02:34:48;;;;;;;20.95;12.38;;;;;;;4.43;95.75;98496.97;4151426;28;20229;-88
2023/12/07 02:36:54;;;;;;;22.83;13.18;;;;;;;4.41;94.94;98504.78;4149298;28;20195;-88
2023/12/07 02:38:58;;;;;;;17.90;12.32;;;;;;;4.41;96.36;98499.59;4158212;28;20204;-88
2023/12/07 02:41:04;;;;;;;19.95;13.55;;;;;;;4.43;95.85;98502.97;4153228;28;20573;-88
2023/12/07 02:43:09;;;;;;;18.63;12.73;;;;;;;4.46;95.49;98497.69;4137887;28;20205;-88
2023/12/07 02:45:12;;;;;;;21.35;13.70;;;;;;;4.45;95.79;98496.03;4150219;28;20238;-87
2023/12/07 02:47:15;;;;;;;18.70;12.90;;;;;;;4.43;94.95;98489.22;4160739;28;20203;-87
2023/12/07 02:49:18;;;;;;;18.00;11.82;;;;;;;4.44;95.88;98494.31;4155254;28;20225;-86
2023/12/07 02:51:21;;;;;;;20.90;14.20;;;;;;;4.40;95.10;98491.91;4159026;28;20210;-87
2023/12/07 02:53:25;;;;;;;19.38;12.30;;;;;;;4.39;95.94;98490.22;4158669;28;20257;-87
2023/12/07 02:55:28;;;;;;;22.23;13.00;;;;;;;4.37;95.54;98492.88;4141889;28;20830;-88
2023/12/07 02:57:30;;;;;;;22.65;14.57;;;;;;;4.34;95.75;98495.56;4144543;28;20215;-87
2023/12/07 02:59:35;;;;;;;23.50;14.43;;;;;;;4.36;95.27;98498.94;4156757;28;20270;-87
2023/12/07 03:01:38;;;;;;;21.88;14.55;;;;;;;4.32;95.30;98494.78;4155482;28;20302;-88
2023/12/07 03:03:42;;;;;;;23.58;15.10;;;;;;;4.30;96.30;98496.59;4155966;28;20253;-87
2023/12/07 03:05:44;;;;;;;20.83;14.52;;;;;;;4.32;95.52;98494.78;4153875;28;20791;-88
2023/12/07 03:07:48;;;;;;;22.00;13.63;;;;;;;4.29;94.82;98494.91;4141163;28;20647;-89
2023/12/07 03:09:51;;;;;;;20.80;13.73;;;;;;;4.29;94.57;98499.22;4156552;28;20598;-88
2023/12/07 03:11:54;;;;;;;22.17;13.70;;;;;;;4.26;94.60;98499.34;4157245;28;20217;-86
2023/12/07 03:13:57;;;;;;;19.40;12.40;;;;;;;4.22;95.40;98503.78;4173049;28;20264;-87
2023/12/07 03:16:02;;;;;;;20.02;12.40;;;;;;;4.22;95.22;98514.09;4158963;28;20819;-88
2023/12/07 03:18:05;;;;;;;24.60;14.35;;;;;;;4.21;94.76;98512.41;4158872;28;20574;-88
2023/12/07 03:20:10;;;;;;;25.35;13.02;;;;;;;4.17;94.96;98504.84;4155613;28;20311;-88
2023/12/07 03:22:13;;;;;;;29.55;11.77;;;;;;;4.11;95.55;98511.97;4156768;28;20195;-88
2023/12/07 03:24:16;;;;;;;42.55;11.93;;;;;;;4.06;94.67;98506.97;4159209;28;20273;-87
2023/12/07 03:26:19;;;;;;;24.52;11.15;;;;;;;4.04;94.97;98513.06;4159253;28;20628;-88
2023/12/07 03:28:22;;;;;;;27.80;10.52;;;;;;;4.01;95.28;98503.69;4141183;28;20208;-88
2023/12/07 03:30:25;;;;;;;31.77;12.25;;;;;;;3.97;95.16;98502.16;4174500;28;20218;-87
2023/12/07 03:32:30;;;;;;;30.05;11.27;;;;;;;3.95;96.24;98500.50;4174985;28;20218;-88
2023/12/07 03:34:33;;;;;;;28.00;9.73;;;;;;;3.93;95.20;98497.97;4156049;28;20557;-88
2023/12/07 03:36:36;;;;;;;42.58;11.48;;;;;;;3.87;95.68;98497.38;4158302;28;20578;-88
2023/12/07 03:38:39;;;;;;;21.52;10.23;;;;;;;3.82;94.60;98494.13;4159432;28;20210;-89
2023/12/07 03:40:47;;;;;;;31.23;11.70;;;;;;;3.78;95.00;98493.38;4138320;28;20711;-87
2023/12/07 03:42:51;;;;;;;27.70;10.75;;;;;;;3.74;95.62;98496.97;4141962;28;20213;-88
2023/12/07 03:44:59;;;;;;;20.38;10.23;;;;;;;3.74;95.79;98485.78;4154197;28;20306;-87
2023/12/07 03:47:02;;;;;;;34.33;11.15;;;;;;;3.72;94.38;98495.31;4156795;28;21653;-89
2023/12/07 03:49:07;;;;;;;20.50;10.02;;;;;;;3.66;95.14;98495.53;4156070;28;20203;-89
2023/12/07 03:51:14;;;;;;;18.85;10.00;;;;;;;3.61;95.39;98486.28;4156228;28;20234;-89
2023/12/07 03:53:17;;;;;;;33.00;9.77;;;;;;;3.61;95.33;98491.41;4154311;28;20226;-87
2023/12/07 03:55:21;;;;;;;17.90;8.63;;;;;;;3.56;94.73;98494.16;4138118;28;20227;-86
2023/12/07 03:57:23;;;;;;;25.83;9.65;;;;;;;3.50;95.80;98491.81;4167856;28;20211;-88
2023/12/07 03:59:26;;;;;;;16.05;8.88;;;;;;;3.49;95.42;98497.88;4143845;28;20234;-88
2023/12/07 04:01:30;;;;;;;21.67;9.10;;;;;;;3.48;94.84;98500.50;4154742;28;20588;-87
2023/12/07 04:03:34;;;;;;;20.70;9.18;;;;;;;3.43;95.28;98507.53;4155679;28;20294;-88
2023/12/07 04:05:39;;;;;;;15.77;9.13;;;;;;;3.41;94.78;98506.72;4154646;28;20641;-88
2023/12/07 04:07:42;;;;;;;20.50;9.18;;;;;;;3.38;94.43;98512.00;4156780;28;20726;-88
2023/12/07 04:09:45;;;;;;;16.02;9.00;;;;;;;3.36;94.44;98509.47;4159186;28;20251;-89
2023/12/07 04:11:48;;;;;;;21.20;9.25;;;;;;;3.33;94.58;98516.47;4154582;28;20633;-89
2023/12/07 04:13:51;;;;;;;23.48;10.25;;;;;;;3.31;95.45;98521.66;4157976;28;20661;-89
2023/12/07 04:15:53;;;;;;;24.95;9.68;;;;;;;3.32;94.83;98522.50;4151349;28;20230;-89
2023/12/07 04:17:56;;;;;;;17.52;9.60;;;;;;;3.32;94.73;98523.38;4159077;28;20210;-88
2023/12/07 04:19:59;;;;;;;28.42;10.73;;;;;;;3.31;95.01;98521.66;4153908;28;20226;-88
2023/12/07 04:22:04;;;;;;;30.95;10.68;;;;;;;3.26;94.64;98514.97;4167434;28;20221;-88
2023/12/07 04:24:08;;;;;;;19.90;10.27;;;;;;;3.24;95.02;98518.50;4154302;28;20219;-88
2023/12/07 04:26:11;;;;;;;23.92;10.52;;;;;;;3.25;95.69;98521.03;4141979;28;20262;-87
2023/12/07 04:28:14;;;;;;;22.48;11.60;;;;;;;3.22;94.86;98517.69;4166687;28;20199;-88
2023/12/07 04:30:18;;;;;;;20.08;9.95;;;;;;;3.20;94.90;98522.06;4170069;28;20363;-88
2023/12/07 04:32:21;;;;;;;16.55;9.88;;;;;;;3.18;95.01;98516.13;4156293;28;20657;-87
2023/12/07 04:34:24;;;;;;;27.90;10.20;;;;;;;3.14;94.55;98517.13;4156097;28;20309;-87
2023/12/07 04:36:27;;;;;;;15.55;9.95;;;;;;;3.14;95.26;98511.97;4155592;28;20301;-88
2023/12/07 04:38:32;;;;;;;14.65;8.90;;;;;;;3.13;95.25;98515.41;4152555;28;20579;-85
2023/12/07 04:40:35;;;;;;;26.77;9.75;;;;;;;3.10;95.38;98520.69;4155593;28;20210;-88
2023/12/07 04:42:39;;;;;;;26.02;10.05;;;;;;;3.05;94.99;98515.69;4153082;28;20203;-89
2023/12/07 04:44:42;;;;;;;18.35;9.98;;;;;;;3.06;94.86;98519.09;4156033;28;20196;-88
2023/12/07 04:46:46;;;;;;;16.10;11.02;;;;;;;3.03;94.71;98516.63;4149328;28;20202;-88
2023/12/07 04:48:49;;;;;;;20.25;9.40;;;;;;;3.03;94.37;98519.19;4157966;28;20296;-87
2023/12/07 04:50:51;;;;;;;23.35;11.10;;;;;;;3.00;94.45;98529.59;4152850;28;20226;-88
2023/12/07 04:52:55;;;;;;;22.73;10.00;;;;;;;3.01;95.01;98532.13;4155780;28;20257;-88
2023/12/07 04:55:00;;;;;;;22.88;11.05;;;;;;;2.98;95.09;98532.22;4170228;28;20211;-88
2023/12/07 04:57:04;;;;;;;23.15;10.80;;;;;;;2.97;95.12;98521.97;4152785;28;20237;-88
2023/12/07 04:59:08;;;;;;;19.67;10.50;;;;;;;2.97;95.10;98519.41;4155101;28;20237;-87
2023/12/07 05:01:12;;;;;;;22.95;9.60;;;;;;;2.97;94.89;98527.13;4155418;28;20215;-87
2023/12/07 05:03:15;;;;;;;28.30;11.02;;;;;;;3.01;94.91;98526.16;4159496;28;20206;-88
2023/12/07 05:05:18;;;;;;;25.65;10.65;;;;;;;2.99;94.89;98522.75;4171189;28;20209;-88
2023/12/07 05:07:21;;;;;;;28.83;11.93;;;;;;;2.97;94.92;98521.97;4150844;28;20206;-87
2023/12/07 05:09:25;;;;;;;25.73;11.02;;;;;;;2.96;94.11;98522.84;4154672;28;20329;-89
2023/12/07 05:11:30;;;;;;;33.40;12.40;;;;;;;2.92;94.45;98523.84;4154859;28;20594;-88
2023/12/07 05:13:35;;;;;;;21.17;11.32;;;;;;;2.90;94.27;98515.31;4156843;28;20214;-88
2023/12/07 05:15:38;;;;;;;20.63;10.70;;;;;;;2.88;94.83;98519.69;4153828;28;20225;-88
2023/12/07 05:17:42;;;;;;;30.60;11.80;;;;;;;2.83;94.96;98517.25;4153542;28;20234;-86
2023/12/07 05:19:45;;;;;;;28.48;11.02;;;;;;;2.83;94.49;98521.56;4143793;28;20678;-88
2023/12/07 05:21:47;;;;;;;20.90;10.73;;;;;;;2.81;94.45;98516.47;4155558;28;20206;-88
2023/12/07 05:23:50;;;;;;;18.83;10.50;;;;;;;2.85;94.95;98527.50;4152234;28;20225;-88
2023/12/07 05:25:54;;;;;;;22.65;10.93;;;;;;;2.85;94.13;98532.66;4151572;28;20234;-86
2023/12/07 05:27:58;;;;;;;32.47;11.25;;;;;;;2.88;93.97;98532.56;4152738;28;20205;-88
2023/12/07 05:30:02;;;;;;;20.70;11.02;;;;;;;2.84;94.44;98536.09;4155545;28;20330;-88
2023/12/07 05:32:07;;;;;;;18.67;11.07;;;;;;;2.83;94.18;98540.41;4155336;28;20321;-87
2023/12/07 05:34:10;;;;;;;26.33;11.75;;;;;;;2.82;94.53;98537.91;4155719;28;20207;-87
2023/12/07 05:36:13;;;;;;;22.67;10.90;;;;;;;2.83;94.22;98537.84;4153418;28;20719;-88
2023/12/07 05:38:16;;;;;;;31.52;12.10;;;;;;;2.82;94.76;98536.16;4157599;28;20199;-87
2023/12/07 05:40:19;;;;;;;26.13;10.88;;;;;;;2.82;95.03;98540.47;4170401;28;20211;-87
2023/12/07 05:42:22;;;;;;;26.77;11.20;;;;;;;2.84;94.48;98541.25;4161353;28;20624;-87
2023/12/07 05:44:27;;;;;;;19.75;11.00;;;;;;;2.82;95.00;98543.03;4157613;28;20209;-88
2023/12/07 05:46:30;;;;;;;49.95;12.75;;;;;;;2.81;94.96;98546.50;4152490;28;20294;-88
2023/12/07 05:48:34;;;;;;;26.30;11.68;;;;;;;2.82;94.63;98545.63;4133347;28;20215;-88
2023/12/07 05:50:39;;;;;;;19.65;11.50;;;;;;;2.80;94.29;98544.84;4152396;28;20932;-88
2023/12/07 05:52:42;;;;;;;21.73;10.25;;;;;;;2.77;95.02;98539.78;4137244;28;20210;-86
2023/12/07 05:54:46;;;;;;;17.10;10.02;;;;;;;2.74;94.96;98545.03;4171529;28;20206;-92
2023/12/07 05:56:50;;;;;;;26.40;10.45;;;;;;;2.71;94.54;98539.97;4166062;28;20225;-89
2023/12/07 05:58:53;;;;;;;31.90;11.77;;;;;;;2.70;95.63;98537.44;4136060;28;20677;-87
2023/12/07 06:00:59;;;;;;;47.40;12.88;;;;;;;2.66;95.72;98543.56;4150661;28;20556;-87
2023/12/07 06:03:02;;;;;;;32.63;10.98;;;;;;;2.69;94.91;98548.63;4157269;28;20214;-88
2023/12/07 06:05:06;;;;;;;21.05;9.98;;;;;;;2.70;94.91;98542.59;4157392;28;20205;-87
2023/12/07 06:07:09;;;;;;;27.02;11.10;;;;;;;2.65;93.86;98545.28;4156715;28;20207;-87
2023/12/07 06:09:13;;;;;;;117.93;41.63;;;;;;;2.60;94.21;98539.47;4159787;28;20268;-90
2023/12/07 06:11:16;;;;;;;88.00;30.27;;;;;;;2.57;94.31;98530.97;4155331;28;20676;-87
2023/12/07 06:13:19;;;;;;;23.88;10.25;;;;;;;2.51;94.71;98541.44;4150960;28;20257;-87
2023/12/07 06:15:22;;;;;;;24.33;10.15;;;;;;;2.48;94.50;98541.53;4159675;28;20210;-87
2023/12/07 06:17:27;;;;;;;40.10;11.88;;;;;;;2.42;93.77;98534.84;4159813;28;20541;-88
2023/12/07 06:19:30;;;;;;;25.52;10.70;;;;;;;2.38;94.54;98540.13;4160306;28;20532;-87
2023/12/07 06:21:33;;;;;;;25.63;10.52;;;;;;;2.33;94.96;98532.53;4156736;28;20231;-88
2023/12/07 06:23:36;;;;;;;20.77;9.88;;;;;;;2.33;94.95;98534.28;4152080;28;20222;-89
2023/12/07 06:25:39;;;;;;;18.00;10.20;;;;;;;2.34;95.28;98539.34;4155075;28;20666;-89
2023/12/07 06:27:43;;;;;;;23.70;10.23;;;;;;;2.34;94.61;98533.38;4155116;28;20211;-88
2023/12/07 06:29:47;;;;;;;25.33;12.20;;;;;;;2.36;95.16;98537.59;4154769;28;20624;-89
2023/12/07 06:31:50;;;;;;;25.42;14.02;;;;;;;2.39;94.81;98546.94;4152812;28;20594;-88
2023/12/07 06:33:55;;;;;;;23.70;10.07;;;;;;;2.39;94.73;98537.50;4152988;28;20261;-91
2023/12/07 06:35:58;;;;;;;23.23;10.02;;;;;;;2.40;94.33;98533.19;4145628;28;20265;-89
2023/12/07 06:38:00;;;;;;;21.85;11.05;;;;;;;2.37;94.62;98539.25;4138965;28;20215;-89
2023/12/07 06:40:04;;;;;;;25.98;11.75;;;;;;;2.35;95.27;98535.91;4163433;28;20242;-89
2023/12/07 06:42:08;;;;;;;23.33;10.75;;;;;;;2.36;94.80;98540.16;4174139;28;20293;-87
2023/12/07 06:44:11;;;;;;;24.40;12.70;;;;;;;2.40;95.01;98538.34;4142423;28;20211;-95
2023/12/07 06:46:16;;;;;;;26.10;13.15;;;;;;;2.41;94.96;98535.72;4158917;28;20299;-91
2023/12/07 06:48:18;;;;;;;30.05;12.60;;;;;;;2.42;95.04;98533.97;4157494;28;20230;-90
2023/12/07 06:50:23;;;;;;;25.15;12.68;;;;;;;2.44;95.14;98538.22;4152606;28;20214;-94
2023/12/07 06:52:26;;;;;;;24.25;12.63;;;;;;;2.45;95.45;98539.91;4150097;28;20250;-92
2023/12/07 06:54:30;;;;;;;29.60;14.25;;;;;;;2.45;95.09;98542.47;4177725;28;20203;-92
2023/12/07 06:56:33;;;;;;;33.00;13.73;;;;;;;2.49;95.51;98538.06;4157565;28;20276;-94
2023/12/07 06:58:36;;;;;;;26.38;12.77;;;;;;;2.51;95.17;98550.03;4157509;28;20250;-95
2023/12/07 07:00:38;;;;;;;22.23;12.27;;;;;;;2.51;95.26;98544.00;4154986;28;20210;-93
2023/12/07 07:02:42;;;;;;;22.67;12.40;;;;;;;2.57;95.52;98551.56;4154452;28;20211;-90
2023/12/07 07:04:45;;;;;;;29.05;13.55;;;;;;;2.58;95.65;98548.94;4151341;28;20233;-91
2023/12/07 07:06:48;;;;;;;20.00;11.32;;;;;;;2.65;95.72;98549.63;4134917;28;20204;-90
2023/12/07 07:08:52;;;;;;;22.48;12.90;;;;;;;2.69;95.62;98554.63;4162491;28;20202;-88
2023/12/07 07:10:55;;;;;;;21.95;12.65;;;;;;;2.71;95.24;98555.41;4154583;28;20207;-92
2023/12/07 07:13:01;;;;;;;20.38;13.02;;;;;;;2.72;95.07;98561.38;4159332;28;20222;-88
2023/12/07 07:15:04;;;;;;;19.35;11.07;;;;;;;2.76;95.40;98552.69;4142560;28;20994;-87
2023/12/07 07:17:08;;;;;;;19.70;11.20;;;;;;;2.79;94.83;98557.75;4160609;28;20262;-87
2023/12/07 07:19:11;;;;;;;16.52;10.43;;;;;;;2.80;95.08;98558.53;4140883;28;20230;-91
2023/12/07 07:21:15;;;;;;;17.25;10.25;;;;;;;2.83;95.40;98555.88;4160400;28;20300;-89
2023/12/07 07:23:19;;;;;;;15.27;10.25;;;;;;;2.86;95.34;98558.34;4136978;28;20209;-90
2023/12/07 07:25:23;;;;;;;17.13;10.60;;;;;;;2.90;94.77;98557.38;4162404;28;20360;-90
2023/12/07 07:27:25;;;;;;;16.58;10.45;;;;;;;2.93;94.66;98557.28;4161262;28;20581;-90
2023/12/07 07:29:28;;;;;;;18.08;11.05;;;;;;;2.96;95.12;98556.31;4155937;28;20206;-90
2023/12/07 07:31:32;;;;;;;26.05;12.90;;;;;;;2.93;94.55;98557.28;4154978;28;20266;-92
2023/12/07 07:33:35;;;;;;;22.42;11.80;;;;;;;2.93;94.85;98556.44;4160930;28;20733;-95
2023/12/07 07:35:42;;;;;;;19.65;11.73;;;;;;;2.89;94.42;98560.84;4173521;28;20212;-88
2023/12/07 07:37:45;;;;;;;22.90;12.30;;;;;;;2.89;93.32;98560.00;4159662;28;20207;-88
2023/12/07 07:39:50;;;;;;;20.90;12.98;;;;;;;2.90;93.46;98564.25;4156571;28;20685;-87
2023/12/07 07:41:53;;;;;;;31.05;13.52;;;;;;;2.87;93.69;98561.75;4140809;28;20608;-88
2023/12/07 07:43:56;;;;;;;26.30;13.20;;;;;;;2.86;93.83;98565.25;4155867;28;20230;-88
2023/12/07 07:46:00;;;;;;;32.10;13.25;;;;;;;2.87;93.62;98569.50;4141781;28;20231;-88
2023/12/07 07:48:03;;;;;;;24.63;12.13;;;;;;;2.89;94.41;98565.16;4159124;28;20209;-87
2023/12/07 07:50:07;;;;;;;33.58;12.80;;;;;;;2.91;94.24;98559.03;4153903;28;20206;-87
2023/12/07 07:52:10;;;;;;;40.90;13.18;;;;;;;2.93;94.42;98561.56;4154015;28;20269;-88
2023/12/07 07:54:12;;;;;;;38.33;11.50;;;;;;;2.95;94.46;98565.78;4143068;28;20299;-88
2023/12/07 07:56:17;;;;;;;26.52;12.13;;;;;;;2.96;94.88;98566.63;4158745;28;20207;-89
2023/12/07 07:58:20;;;;;;;44.90;10.55;;;;;;;2.99;94.85;98556.22;4157765;28;20234;-89
2023/12/07 08:00:25;;;;;;;37.38;11.75;;;;;;;3.02;94.90;98563.88;4153815;28;20211;-87
2023/12/07 08:02:28;;;;;;;37.92;10.55;;;;;;;3.01;95.02;98569.94;4143204;28;20238;-89
2023/12/07 08:04:32;;;;;;;37.78;13.82;;;;;;;3.00;95.60;98573.38;4144996;28;20235;-88
2023/12/07 08:06:35;;;;;;;34.00;14.43;;;;;;;3.01;95.72;98573.34;4156040;28;20736;-88
2023/12/07 08:08:39;;;;;;;39.33;12.20;;;;;;;3.03;94.84;98570.72;4159787;28;20238;-88
2023/12/07 08:10:43;;;;;;;35.90;14.07;;;;;;;3.03;94.50;98570.72;4161823;28;20206;-88
2023/12/07 08:12:59;;;;;;;28.73;12.23;;;;;;;3.02;95.64;98571.59;4157694;28;20579;-89
2023/12/07 08:15:03;;;;;;;23.83;11.30;;;;;;;3.09;95.41;98578.25;4156371;28;20253;-88
2023/12/07 08:17:06;;;;;;;20.48;10.40;;;;;;;3.17;95.22;98579.69;4157820;28;20714;-88
2023/12/07 08:19:10;;;;;;;32.95;11.68;;;;;;;3.27;95.33;98579.34;4155119;28;20250;-88
2023/12/07 08:21:19;;;;;;;24.25;10.50;;;;;;;3.39;94.72;98580.69;4154523;28;20662;-86
2023/12/07 08:23:31;;;;;;;27.52;11.35;;;;;;;3.47;95.40;98576.97;4158268;28;20274;-87
2023/12/07 08:25:34;;;;;;;23.60;11.10;;;;;;;3.51;94.16;98588.03;4159005;28;20708;-89
2023/12/07 08:27:38;;;;;;;24.27;11.05;;;;;;;3.54;94.68;98593.09;4170228;28;20221;-88
2023/12/07 08:29:42;;;;;;;24.88;11.80;;;;;;;3.56;94.34;98586.97;4175757;28;20583;-89
2023/12/07 08:31:46;;;;;;;25.67;11.38;;;;;;;3.59;94.95;98586.88;4171895;28;20245;-87
2023/12/07 08:33:50;;;;;;;25.73;9.88;;;;;;;3.59;94.28;98586.88;4173943;28;20225;-89
2023/12/07 08:35:55;;;;;;;24.33;11.05;;;;;;;3.60;94.34;98587.72;4173300;28;20205;-89
2023/12/07 08:37:58;;;;;;;19.20;10.90;;;;;;;3.59;93.92;98592.03;4158393;28;20207;-89
2023/12/07 08:40:01;;;;;;;24.23;10.52;;;;;;;3.59;95.20;98593.75;4155978;28;20230;-89
2023/12/07 08:42:04;;;;;;;29.67;12.13;;;;;;;3.62;94.45;98596.25;4160165;28;20214;-89
2023/12/07 08:44:08;;;;;;;19.25;11.15;;;;;;;3.66;93.51;98597.84;4157104;28;20244;-89
2023/12/07 08:46:12;;;;;;;20.98;10.60;;;;;;;3.68;93.67;98594.28;4157565;28;20729;-88
2023/12/07 08:48:17;;;;;;;23.85;12.43;;;;;;;3.71;94.47;98598.53;4175831;28;20641;-89
2023/12/07 08:50:21;;;;;;;24.02;10.85;;;;;;;3.77;94.09;98594.00;4162996;28;20260;-89
2023/12/07 08:52:24;;;;;;;21.02;11.32;;;;;;;3.81;93.41;98591.25;4158992;28;20218;-89
2023/12/07 08:54:44;;;;;;;29.83;13.15;;;;;;;3.86;94.96;98591.09;4156926;28;20241;-89
2023/12/07 08:56:48;;;;;;;29.15;12.35;;;;;;;3.90;94.08;98595.28;4158657;28;20286;-89
2023/12/07 08:58:51;;;;;;;22.02;11.45;;;;;;;3.99;93.76;98582.06;4158629;28;20206;-88
2023/12/07 09:00:55;;;;;;;29.83;13.88;;;;;;;4.09;93.19;98575.66;4156496;28;20217;-87
2023/12/07 09:02:59;;;;;;;27.02;15.05;;;;;;;4.15;94.33;98583.19;4145566;28;20619;-88
2023/12/07 09:05:03;;;;;;;26.10;14.30;;;;;;;4.19;93.79;98582.19;4157585;28;20221;-88
2023/12/07 09:07:06;;;;;;;23.70;14.70;;;;;;;4.27;94.37;98574.13;4158865;28;20214;-89
2023/12/07 09:09:11;;;;;;;23.13;15.00;;;;;;;4.38;93.84;98577.16;4137949;28;20269;-87
2023/12/07 09:11:15;;;;;;;22.73;14.20;;;;;;;4.50;94.83;98573.31;4157365;28;20709;-89
2023/12/07 09:13:18;;;;;;;23.42;15.23;;;;;;;4.59;94.87;98572.97;4158714;28;20362;-88
2023/12/07 09:15:22;;;;;;;22.42;15.13;;;;;;;4.70;94.66;98566.47;4151524;28;20203;-89
2023/12/07 09:17:25;;;;;;;22.95;15.20;;;;;;;4.81;94.78;98572.06;4144417;28;20235;-88
2023/12/07 09:19:30;;;;;;;22.17;15.63;;;;;;;4.91;94.82;98573.41;4174802;28;20594;-87
2023/12/07 09:21:33;;;;;;;24.40;17.42;;;;;;;4.99;95.07;98571.38;4143710;28;20216;-88
2023/12/07 09:23:37;;;;;;;23.40;16.48;;;;;;;5.06;94.01;98567.66;4160270;28;20215;-89
2023/12/07 09:25:40;;;;;;;29.20;19.40;;;;;;;5.09;92.89;98563.22;4157227;28;20213;-88
2023/12/07 09:27:44;;;;;;;19.17;13.02;;;;;;;5.19;93.97;98561.97;4145772;28;20204;-87
2023/12/07 09:29:48;;;;;;;20.40;13.18;;;;;;;5.29;93.34;98561.53;4158923;28;20772;-88
2023/12/07 09:31:51;;;;;;;22.85;14.25;;;;;;;5.38;95.00;98566.34;4160253;28;20575;-88
2023/12/07 09:33:54;;;;;;;19.20;12.90;;;;;;;5.44;95.15;98565.22;4158598;28;20238;-88
2023/12/07 09:35:59;;;;;;;20.48;12.95;;;;;;;5.52;94.70;98560.56;4141344;28;20203;-89
2023/12/07 09:38:02;;;;;;;20.95;14.32;;;;;;;5.60;95.09;98558.53;4159525;28;20595;-88